Asuncion Guarany, Paraguay

10:29 PM PYST on October 24, 2014 (GMT -0300)
Guarani International | Change Station
CLOSE
Current Station
Airport
Location: Ciudad del Este,
Elevation: 2785 ft
Nearby Weather Stations

Elev 2785 ft 25.46 °S, 54.84 °W | Updated 29 minutes ago

Clear
Clear
77 °F
Feels Like 77 °F
N
6
Wind Variable Wind from ENE

Today
High -- | Low -- °F
--% Chance of Precip.
Yesterday
High -- | Low -- °F
Precip. -- in
5:57 AM 6:50 PM
New Moon, 1% visible
Pressure 29.89 in
Visibility -9999.0 miles
Clouds
Dew Point 63 °F
Humidity 61%
Rainfall 0.00 in
Snow Depth Not available.
UV Not available.
Pollen Not available.
Air Quality Not available.
Flu Activity Not available.
METAR SGES 250100Z 07005KT CAVOK 25/17 Q1012

More Conditions Fewer Conditions

Pressure 29.89 in
Visibility -9999.0 miles
Clouds
Dew Point 63 °F
Humidity 61%
Rainfall 0.00 in
Snow Depth Not available.
UV Not available.
Pollen Not available.
Air Quality Not available.
Flu Activity Not available.
METAR SGES 250100Z 07005KT CAVOK 25/17 Q1012

More Conditions Fewer Conditions

10-Day Weather Forecast

Almanac

Astronomy

Oct. 24, 2014 Rise Set
Actual Time 5:57 AM PYST 6:50 PM PYST
Civil Twilight 5:33 AM PYST 7:14 PM PYST
Nautical Twilight 5:05 AM PYST 7:42 PM PYST
Astronomical Twilight 4:36 AM PYST 8:10 PM PYST
Moon 6:24 AM PYST (10/24) 7:40 PM PYST (10/24)
Length of Visible Light 13h 40m
Length of Day
12h 53m
Tomorrow will be 1m 24s longer.
New Moon, 1% of the Moon is Illuminated
Today
New Moon
Oct 30
First Quarter
Nov 6
Full
Nov 14
Last Quarter
Nov 22
New

Today's Extremes

Country Highs Country Lows

Community

WunderPhotos

Upload Photos

1,764,741 photos uploaded!

WunderBlogs® & News

Nearby

Snow Depth

Not available.

Earthquake Activity

City Distance Mag. Time & Date
No recent earthquake activity has been reported nearby.
Minimum magnitude displayed is 2.5.

Coastal Water Temperatures

Place Temperature
No Stations Reporting

Nearby Weather Stations